createdAt,value
2023-03-26T00:01:13.449Z,3.38
2023-03-26T00:03:40.442Z,6.80
2023-03-26T00:06:10.455Z,5.65
2023-03-26T00:08:38.942Z,8.68
2023-03-26T00:11:07.733Z,7.28
2023-03-26T00:13:34.664Z,9.00
2023-03-26T00:16:01.799Z,6.97
2023-03-26T00:18:28.292Z,6.97
2023-03-26T00:20:54.768Z,5.00
2023-03-26T00:23:21.255Z,5.65
2023-03-26T00:25:49.456Z,4.78
2023-03-26T00:28:16.358Z,5.20
2023-03-26T00:30:43.298Z,4.28
2023-03-26T00:33:09.816Z,5.28
2023-03-26T00:35:37.075Z,4.38
2023-03-26T00:42:56.310Z,5.30
2023-03-26T00:45:22.771Z,5.13
2023-03-26T00:47:49.259Z,6.38
2023-03-26T00:50:15.805Z,5.88
2023-03-26T00:52:43.984Z,7.00
2023-03-26T00:55:10.639Z,5.60
2023-03-26T00:57:37.161Z,10.43
2023-03-26T01:00:13.441Z,5.35
2023-03-26T01:02:40.024Z,5.80
2023-03-26T01:05:34.336Z,7.80
2023-03-26T01:08:26.711Z,8.52
2023-03-26T01:10:55.587Z,6.53
2023-03-26T01:13:24.190Z,4.30
2023-03-26T01:15:51.521Z,5.22
2023-03-26T01:18:22.493Z,6.47
2023-03-26T01:20:50.841Z,9.27
2023-03-26T01:23:24.644Z,9.02
2023-03-26T01:26:04.172Z,8.77
2023-03-26T01:28:33.996Z,10.60
2023-03-26T01:31:21.306Z,12.38
2023-03-26T01:34:02.057Z,8.18
2023-03-26T01:36:39.663Z,10.50
2023-03-26T01:39:29.103Z,12.10
2023-03-26T01:42:02.652Z,7.57
2023-03-26T01:44:50.396Z,6.05
2023-03-26T01:47:18.380Z,5.15
2023-03-26T01:49:44.866Z,6.60
2023-03-26T01:52:21.592Z,5.88
2023-03-26T01:54:48.668Z,6.00
2023-03-26T01:57:23.919Z,7.00
2023-03-26T02:00:17.676Z,7.68
2023-03-26T02:02:56.197Z,11.05
2023-03-26T02:05:29.050Z,9.00
2023-03-26T02:08:19.832Z,9.65
2023-03-26T02:10:51.136Z,7.22
2023-03-26T02:13:17.756Z,6.63
2023-03-26T02:16:17.174Z,6.78
2023-03-26T02:18:45.236Z,5.70
2023-03-26T02:21:15.821Z,7.40
2023-03-26T02:23:44.378Z,5.78
2023-03-26T02:26:11.385Z,8.35
2023-03-26T02:28:38.283Z,6.60
2023-03-26T02:31:05.325Z,6.90
2023-03-26T02:33:32.714Z,6.68
2023-03-26T02:35:59.650Z,7.13
2023-03-26T02:38:26.517Z,7.90
2023-03-26T02:40:54.115Z,6.53
2023-03-26T02:43:20.572Z,6.43
2023-03-26T02:45:47.131Z,6.47
2023-03-26T02:48:13.971Z,6.20
2023-03-26T02:50:41.071Z,6.97
2023-03-26T02:53:07.832Z,7.82
2023-03-26T02:55:34.321Z,7.07
2023-03-26T02:58:00.781Z,9.98
2023-03-26T03:00:27.287Z,6.97
2023-03-26T03:02:53.791Z,5.20
2023-03-26T03:05:20.340Z,7.43
2023-03-26T03:07:46.859Z,4.35
2023-03-26T03:10:14.309Z,5.35
2023-03-26T03:12:41.985Z,4.53
2023-03-26T03:15:09.292Z,5.82
2023-03-26T03:20:02.120Z,6.25
2023-03-26T03:22:28.893Z,7.78
2023-03-26T03:24:55.356Z,5.78
2023-03-26T03:27:21.802Z,9.07
2023-03-26T03:29:48.276Z,11.23
2023-03-26T03:32:14.748Z,13.60
2023-03-26T03:34:41.195Z,16.75
2023-03-26T03:37:07.682Z,18.90
2023-03-26T03:39:34.164Z,12.27
2023-03-26T03:42:00.675Z,10.63
2023-03-26T03:44:27.141Z,10.57
2023-03-26T03:46:53.648Z,11.82
2023-03-26T03:49:20.149Z,9.57
2023-03-26T03:51:46.646Z,10.02
2023-03-26T03:54:13.188Z,7.45
2023-03-26T03:56:39.772Z,8.90
2023-03-26T03:59:06.327Z,9.20
2023-03-26T04:01:32.790Z,12.68
2023-03-26T04:03:59.396Z,8.68
2023-03-26T04:06:26.091Z,7.85
2023-03-26T04:08:52.607Z,10.68
2023-03-26T04:11:19.122Z,8.63
2023-03-26T04:13:45.627Z,9.02
2023-03-26T04:16:12.145Z,10.40
2023-03-26T04:18:38.602Z,10.35
2023-03-26T04:21:05.838Z,10.80
2023-03-26T04:23:32.328Z,11.02
2023-03-26T04:26:02.510Z,8.50
2023-03-26T04:28:32.513Z,11.35
2023-03-26T04:31:01.142Z,9.52
2023-03-26T04:33:30.146Z,15.13
2023-03-26T04:35:57.324Z,15.52
2023-03-26T04:40:50.416Z,36.95
2023-03-26T04:43:17.194Z,31.80
2023-03-26T04:45:44.444Z,26.10
2023-03-26T04:48:11.120Z,30.98
2023-03-26T04:50:37.619Z,27.85
2023-03-26T04:53:04.069Z,15.13
2023-03-26T04:55:41.690Z,17.88
2023-03-26T04:58:08.185Z,13.65
2023-03-26T05:00:34.874Z,14.73
2023-03-26T05:03:01.381Z,12.18
2023-03-26T05:05:29.053Z,13.77
2023-03-26T05:07:55.507Z,20.08
2023-03-26T05:10:22.172Z,15.40
2023-03-26T05:12:48.871Z,13.40
2023-03-26T05:15:15.967Z,14.52
2023-03-26T05:17:42.888Z,17.50
2023-03-26T05:20:19.415Z,18.65
2023-03-26T05:22:46.170Z,15.73
2023-03-26T05:25:13.663Z,9.88
2023-03-26T05:27:40.369Z,11.93
2023-03-26T05:30:08.142Z,10.70
2023-03-26T05:32:34.697Z,9.15
2023-03-26T05:35:02.066Z,10.20
2023-03-26T05:37:29.372Z,7.85
2023-03-26T05:42:22.193Z,16.30
2023-03-26T05:44:49.053Z,73.30
2023-03-26T05:47:15.582Z,105.15
2023-03-26T05:49:42.115Z,33.55
2023-03-26T05:52:08.607Z,11.00
2023-03-26T05:54:35.120Z,8.00
2023-03-26T05:57:01.677Z,9.05
2023-03-26T05:59:28.469Z,7.10
2023-03-26T06:01:54.964Z,7.70
2023-03-26T06:04:21.564Z,7.85
2023-03-26T06:06:48.213Z,7.57
2023-03-26T06:09:14.692Z,8.63
2023-03-26T06:11:41.229Z,7.65
2023-03-26T06:14:07.739Z,5.30
2023-03-26T06:16:34.365Z,5.05
2023-03-26T06:19:00.880Z,5.35
2023-03-26T06:21:28.230Z,4.00
2023-03-26T06:23:55.460Z,12.18
2023-03-26T06:26:21.970Z,7.57
2023-03-26T06:28:48.772Z,7.32
2023-03-26T06:33:41.607Z,5.55
2023-03-26T06:36:08.545Z,4.95
2023-03-26T06:38:35.164Z,7.57
2023-03-26T06:41:03.531Z,5.70
2023-03-26T06:43:30.062Z,5.53
2023-03-26T06:45:56.534Z,5.72
2023-03-26T06:48:22.989Z,5.25
2023-03-26T06:50:49.476Z,5.90
2023-03-26T06:53:15.962Z,13.95
2023-03-26T06:55:42.428Z,12.70
2023-03-26T06:58:11.859Z,4.95
2023-03-26T07:00:38.806Z,6.15
2023-03-26T07:03:06.228Z,4.72
2023-03-26T07:05:32.791Z,4.03
2023-03-26T07:07:59.265Z,8.98
2023-03-26T07:10:25.789Z,6.05
2023-03-26T07:12:53.152Z,6.88
2023-03-26T07:15:19.595Z,7.88
2023-03-26T07:17:46.116Z,5.25
2023-03-26T07:20:12.876Z,7.63
2023-03-26T07:22:39.677Z,4.38
2023-03-26T07:27:51.141Z,7.40
2023-03-26T07:30:31.515Z,4.85
2023-03-26T07:33:00.835Z,5.80
2023-03-26T07:35:46.657Z,6.20
2023-03-26T07:41:32.702Z,13.13
2023-03-26T07:44:01.929Z,43.47
2023-03-26T07:46:33.123Z,4.15
2023-03-26T07:49:00.217Z,4.50
2023-03-26T07:51:27.337Z,4.20
2023-03-26T07:53:54.105Z,3.92
2023-03-26T07:59:23.193Z,6.72
2023-03-26T08:02:16.589Z,4.35
2023-03-26T08:04:54.382Z,5.60
2023-03-26T08:07:49.832Z,2.72
2023-03-26T08:10:23.531Z,4.45
2023-03-26T08:12:52.837Z,3.03
2023-03-26T08:15:28.387Z,17.95
2023-03-26T08:18:13.596Z,25.92
2023-03-26T08:20:48.916Z,1.73
2023-03-26T08:23:21.308Z,2.60
2023-03-26T08:25:57.340Z,3.55
2023-03-26T08:28:34.929Z,2.55
2023-03-26T08:31:01.693Z,5.05
2023-03-26T08:33:28.747Z,2.58
2023-03-26T08:35:55.301Z,2.28
2023-03-26T08:38:22.762Z,1.58
2023-03-26T08:41:10.939Z,1.80
2023-03-26T08:44:04.113Z,1.50
2023-03-26T08:47:09.937Z,4.10
2023-03-26T08:50:00.941Z,2.70
2023-03-26T08:52:45.790Z,7.80
2023-03-26T08:55:12.226Z,3.92
2023-03-26T08:57:59.998Z,2.30
2023-03-26T09:00:56.418Z,4.97
2023-03-26T09:03:50.770Z,1.30
2023-03-26T09:06:38.685Z,1.35
2023-03-26T09:09:22.133Z,2.13
2023-03-26T09:12:09.931Z,2.47
2023-03-26T09:14:57.784Z,4.60
2023-03-26T09:17:43.240Z,4.32
2023-03-26T09:20:30.624Z,3.00
2023-03-26T09:23:18.358Z,3.00
2023-03-26T09:25:44.776Z,1.75
2023-03-26T09:28:50.182Z,1.85
2023-03-26T09:31:52.468Z,11.93
2023-03-26T09:34:29.173Z,9.65
2023-03-26T09:37:25.622Z,2.08
2023-03-26T09:40:15.484Z,3.20
2023-03-26T09:43:00.119Z,3.67
2023-03-26T09:45:50.778Z,3.80
2023-03-26T09:48:43.393Z,2.00
2023-03-26T09:51:32.809Z,2.47
2023-03-26T09:54:25.013Z,2.03
2023-03-26T09:56:57.754Z,1.35
2023-03-26T10:00:01.524Z,2.22
2023-03-26T10:02:51.573Z,30.58
2023-03-26T10:05:18.019Z,5.65
2023-03-26T10:08:01.176Z,5.68
2023-03-26T10:10:55.675Z,2.67
2023-03-26T10:13:41.090Z,3.28
2023-03-26T10:16:19.518Z,3.63
2023-03-26T10:19:19.560Z,1.83
2023-03-26T10:21:59.607Z,3.15
2023-03-26T10:24:57.246Z,2.60
2023-03-26T10:27:32.573Z,2.90
2023-03-26T10:30:17.492Z,22.80
2023-03-26T10:32:51.183Z,3.80
2023-03-26T10:35:42.037Z,1.42
2023-03-26T10:38:35.562Z,2.15
2023-03-26T10:41:20.816Z,4.55
2023-03-26T10:44:07.348Z,2.95
2023-03-26T10:46:41.589Z,3.00
2023-03-26T10:52:06.595Z,3.30
2023-03-26T10:54:53.355Z,2.25
2023-03-26T10:57:41.373Z,1.65
2023-03-26T11:00:18.071Z,1.83
2023-03-26T11:03:03.374Z,1.02
2023-03-26T11:05:51.464Z,1.98
2023-03-26T11:08:31.976Z,1.13
2023-03-26T11:11:19.393Z,2.40
2023-03-26T11:13:45.862Z,3.00
2023-03-26T11:16:34.038Z,1.33
2023-03-26T11:19:22.002Z,2.60
2023-03-26T11:22:20.472Z,1.08
2023-03-26T11:25:00.875Z,0.93
2023-03-26T11:27:52.766Z,1.50
2023-03-26T11:33:00.212Z,2.50
2023-03-26T11:35:39.591Z,3.83
2023-03-26T11:38:17.167Z,3.45
2023-03-26T11:40:46.025Z,3.15
2023-03-26T11:43:14.737Z,3.35
2023-03-26T11:45:46.449Z,7.78
2023-03-26T11:48:24.721Z,21.15
2023-03-26T11:50:58.359Z,4.85
2023-03-26T11:53:29.442Z,2.35
2023-03-26T11:56:04.207Z,2.08
2023-03-26T11:58:54.501Z,1.77
2023-03-26T12:01:49.170Z,0.90
2023-03-26T12:04:18.334Z,1.98
2023-03-26T12:07:06.662Z,2.00
2023-03-26T12:09:33.166Z,2.75
2023-03-26T12:14:29.957Z,4.30
2023-03-26T12:17:07.004Z,5.55
2023-03-26T12:19:42.487Z,3.25
2023-03-26T12:22:37.502Z,3.30
2023-03-26T12:25:25.327Z,3.75
2023-03-26T12:27:57.491Z,10.50
2023-03-26T12:30:26.877Z,2.88
2023-03-26T12:32:58.957Z,1.60
2023-03-26T12:35:27.946Z,1.95
2023-03-26T12:37:56.709Z,2.28
2023-03-26T12:40:29.372Z,7.13
2023-03-26T12:44:49.470Z,8.50
2023-03-26T12:46:03.728Z,6.68
2023-03-26T12:48:41.640Z,27.55
2023-03-26T12:51:19.354Z,21.05
2023-03-26T12:54:06.512Z,6.10
2023-03-26T12:56:42.761Z,11.13
2023-03-26T12:59:21.125Z,17.73
2023-03-26T13:01:52.722Z,6.55
2023-03-26T13:04:36.330Z,9.95
2023-03-26T13:07:21.660Z,21.58
2023-03-26T13:09:52.834Z,12.68
2023-03-26T13:13:04.982Z,17.55
2023-03-26T13:15:38.847Z,18.02
2023-03-26T13:18:13.227Z,18.23
2023-03-26T13:20:54.711Z,12.25
2023-03-26T13:23:27.317Z,4.85
2023-03-26T13:26:23.059Z,1.10
2023-03-26T13:29:22.149Z,3.35
2023-03-26T13:32:03.753Z,4.25
2023-03-26T13:35:12.278Z,1.20
2023-03-26T13:37:54.189Z,3.83
2023-03-26T13:40:42.497Z,1.63
2023-03-26T13:43:30.875Z,5.80
2023-03-26T13:46:18.505Z,2.80
2023-03-26T13:48:57.567Z,1.52
2023-03-26T13:54:22.528Z,4.10
2023-03-26T13:57:06.297Z,5.22
2023-03-26T13:59:40.710Z,19.33
2023-03-26T14:02:23.161Z,1.17
2023-03-26T14:04:56.587Z,1.27
2023-03-26T14:07:27.260Z,2.05
2023-03-26T14:10:01.651Z,1.27
2023-03-26T14:12:34.111Z,1.80
2023-03-26T14:15:05.152Z,2.13
2023-03-26T14:17:55.413Z,2.42
2023-03-26T14:20:43.493Z,3.13
2023-03-26T14:23:22.173Z,2.88
2023-03-26T14:26:04.236Z,1.08
2023-03-26T14:28:51.600Z,2.63
2023-03-26T14:31:35.734Z,1.45
2023-03-26T14:34:22.263Z,1.27
2023-03-26T14:37:13.122Z,1.70
2023-03-26T14:39:48.619Z,2.15
2023-03-26T14:42:36.140Z,18.95
2023-03-26T14:45:27.601Z,3.97
2023-03-26T14:48:31.584Z,3.15
2023-03-26T14:51:17.521Z,8.30
2023-03-26T14:53:52.337Z,18.17
2023-03-26T14:56:24.543Z,14.93
2023-03-26T14:59:06.165Z,20.85
2023-03-26T15:01:56.104Z,10.27
2023-03-26T15:04:41.188Z,7.68
2023-03-26T15:07:48.921Z,6.65
2023-03-26T15:10:43.014Z,11.55
2023-03-26T15:13:33.786Z,11.27
2023-03-26T15:16:45.040Z,13.20
2023-03-26T15:20:00.546Z,9.05
2023-03-26T15:22:45.633Z,9.55
2023-03-26T15:25:14.834Z,7.80
2023-03-26T15:28:05.411Z,5.22
2023-03-26T15:30:34.976Z,9.05
2023-03-26T15:33:25.912Z,8.63
2023-03-26T15:36:11.191Z,5.03
2023-03-26T15:39:02.324Z,3.72
2023-03-26T16:10:32.536Z,19.30
2023-03-26T16:13:17.392Z,23.70
2023-03-26T16:15:53.227Z,105.40
2023-03-26T16:18:28.411Z,10.13
2023-03-26T16:21:03.347Z,18.63
2023-03-26T16:23:55.058Z,12.93
2023-03-26T16:26:54.531Z,24.45
2023-03-26T16:29:23.196Z,49.13
2023-03-26T16:32:08.324Z,38.45
2023-03-26T16:34:52.911Z,52.13
2023-03-26T16:37:42.393Z,139.02
2023-03-26T16:40:17.719Z,126.78
2023-03-26T16:43:18.016Z,107.07
2023-03-26T16:45:50.345Z,89.38
2023-03-26T16:48:29.493Z,93.97
2023-03-26T16:51:14.268Z,103.35
2023-03-26T16:54:00.554Z,96.05
2023-03-26T16:56:50.147Z,111.15
2023-03-26T17:00:07.846Z,96.15
2023-03-26T17:02:40.852Z,143.52
2023-03-26T17:05:32.487Z,212.85
2023-03-26T17:08:14.710Z,180.13
2023-03-26T17:11:00.342Z,172.38
2023-03-26T17:14:00.178Z,196.77
2023-03-26T17:16:34.149Z,184.68
2023-03-26T17:19:19.027Z,175.63
2023-03-26T17:22:16.603Z,170.85
2023-03-26T17:25:14.524Z,258.77
2023-03-26T17:27:51.614Z,159.05
2023-03-26T17:30:30.241Z,196.48
2023-03-26T17:33:02.470Z,258.50
2023-03-26T17:35:47.715Z,266.70
2023-03-26T17:38:16.895Z,267.13
2023-03-26T17:40:58.421Z,199.90
2023-03-26T17:43:48.810Z,139.27
2023-03-26T17:46:47.116Z,126.78
2023-03-26T17:49:22.131Z,113.80
2023-03-26T17:51:58.165Z,118.60
2023-03-26T17:54:38.975Z,144.80
2023-03-26T17:57:29.951Z,141.57
2023-03-26T17:59:58.752Z,195.40
2023-03-26T18:02:36.945Z,206.88
2023-03-26T18:05:07.991Z,191.45
2023-03-26T18:07:55.545Z,186.13
2023-03-26T18:10:52.380Z,150.13
2023-03-26T18:13:31.225Z,138.20
2023-03-26T18:16:13.994Z,140.25
2023-03-26T18:19:04.617Z,136.73
2023-03-26T18:21:39.498Z,135.95
2023-03-26T18:24:08.361Z,139.38
2023-03-26T18:26:41.334Z,251.90
2023-03-26T18:29:19.771Z,201.25
2023-03-26T18:31:49.269Z,181.40
2023-03-26T18:34:17.149Z,232.07
2023-03-26T18:36:43.659Z,225.32
2023-03-26T18:39:13.083Z,228.45
2023-03-26T18:41:42.159Z,210.48
2023-03-26T18:44:16.037Z,215.07
2023-03-26T18:46:43.070Z,261.73
2023-03-26T18:49:15.581Z,217.07
2023-03-26T18:51:56.161Z,196.55
2023-03-26T18:54:24.950Z,234.40
2023-03-26T18:56:51.455Z,228.80
2023-03-26T18:59:31.176Z,213.50
2023-03-26T19:02:10.515Z,214.80
2023-03-26T19:04:37.932Z,223.15
2023-03-26T19:07:09.072Z,231.18
2023-03-26T19:09:35.959Z,219.30
2023-03-26T19:12:21.208Z,201.20
2023-03-26T19:15:04.565Z,191.52
2023-03-26T19:17:40.588Z,208.15
2023-03-26T19:20:15.373Z,201.18
2023-03-26T19:22:42.448Z,268.60
2023-03-26T19:25:19.220Z,304.38
2023-03-26T19:27:45.796Z,303.77
2023-03-26T19:30:20.959Z,266.13
2023-03-26T19:32:53.680Z,292.45
2023-03-26T19:35:22.433Z,292.25
2023-03-26T19:37:50.735Z,282.02
2023-03-26T19:40:23.058Z,288.55
2023-03-26T19:42:49.618Z,286.00
2023-03-26T19:45:19.733Z,264.55
2023-03-26T19:47:54.323Z,234.60
2023-03-26T19:50:30.000Z,206.63
2023-03-26T19:53:16.113Z,181.13
2023-03-26T19:55:53.672Z,179.75
2023-03-26T19:58:20.244Z,161.55
2023-03-26T20:00:46.846Z,122.95
2023-03-26T20:03:14.520Z,78.90
2023-03-26T20:05:41.150Z,76.03
2023-03-26T20:08:15.712Z,73.22
2023-03-26T20:10:42.917Z,79.10
2023-03-26T20:15:40.804Z,96.22
2023-03-26T20:18:07.335Z,118.65
2023-03-26T20:20:34.010Z,112.05
2023-03-26T20:23:00.503Z,124.68
2023-03-26T20:25:32.320Z,115.93
2023-03-26T20:27:58.920Z,112.28
2023-03-26T20:33:12.888Z,115.30
2023-03-26T20:35:40.216Z,101.82
2023-03-26T20:38:06.773Z,103.55
2023-03-26T20:40:33.258Z,120.70
2023-03-26T20:42:59.708Z,125.00
2023-03-26T20:45:26.171Z,163.13
2023-03-26T20:47:52.629Z,182.20
2023-03-26T20:50:21.703Z,154.20
2023-03-26T20:52:49.624Z,141.82
2023-03-26T20:55:18.742Z,138.88
2023-03-26T20:57:45.211Z,130.00
2023-03-26T21:00:12.787Z,128.88
2023-03-26T21:02:41.866Z,122.70
2023-03-26T21:05:11.060Z,133.63
2023-03-26T21:07:37.730Z,139.90
2023-03-26T21:10:04.740Z,138.85
2023-03-26T21:12:34.668Z,122.57
2023-03-26T21:15:03.293Z,122.80
2023-03-26T21:17:31.855Z,106.93
2023-03-26T21:19:58.574Z,97.75
2023-03-26T21:22:37.271Z,106.00
2023-03-26T21:25:23.956Z,87.90
2023-03-26T21:28:15.269Z,76.30
2023-03-26T21:30:41.986Z,74.47
2023-03-26T21:33:08.530Z,81.13
2023-03-26T21:35:35.500Z,76.55
2023-03-26T21:38:04.153Z,80.50
2023-03-26T21:40:30.903Z,75.75
2023-03-26T21:42:57.830Z,72.55
2023-03-26T21:45:24.632Z,67.25
2023-03-26T21:47:51.469Z,68.22
2023-03-26T21:50:20.532Z,62.22
2023-03-26T21:52:47.618Z,61.08
2023-03-26T21:55:14.723Z,79.65
2023-03-26T21:57:47.280Z,101.97
2023-03-26T22:00:17.198Z,84.45
2023-03-26T22:03:25.069Z,77.53
2023-03-26T22:05:59.443Z,86.40
2023-03-26T22:08:40.766Z,76.93
2023-03-26T22:11:10.078Z,86.72
2023-03-26T22:13:36.966Z,92.88
2023-03-26T22:16:03.760Z,78.28
2023-03-26T22:18:30.389Z,78.07
2023-03-26T22:20:57.706Z,62.72
2023-03-26T22:23:24.360Z,55.58
2023-03-26T22:25:50.817Z,53.42
2023-03-26T22:28:17.424Z,49.17
2023-03-26T22:30:44.004Z,50.28
2023-03-26T22:33:10.913Z,50.03
2023-03-26T22:35:38.617Z,59.47
2023-03-26T22:38:05.488Z,64.00
2023-03-26T22:40:31.905Z,67.22
2023-03-26T22:42:58.352Z,66.68
2023-03-26T22:45:24.859Z,64.25
2023-03-26T22:47:51.435Z,68.18
2023-03-26T22:50:29.710Z,65.35
2023-03-26T22:52:56.240Z,59.80
2023-03-26T22:55:28.783Z,70.78
2023-03-26T22:57:56.105Z,70.07
2023-03-26T23:00:22.704Z,76.22
2023-03-26T23:02:49.282Z,72.07
2023-03-26T23:05:16.380Z,80.78
2023-03-26T23:07:43.147Z,91.45
2023-03-26T23:10:10.705Z,88.68
2023-03-26T23:12:38.325Z,80.85
2023-03-26T23:15:06.149Z,72.75
2023-03-26T23:17:34.337Z,71.60
2023-03-26T23:20:02.458Z,65.20
2023-03-26T23:22:28.923Z,73.47
2023-03-26T23:24:55.358Z,76.97
2023-03-26T23:27:22.738Z,68.43
2023-03-26T23:32:24.062Z,61.78
2023-03-26T23:34:51.927Z,63.22
2023-03-26T23:37:19.065Z,55.95
2023-03-26T23:39:45.516Z,56.22
2023-03-26T23:42:11.966Z,61.00
2023-03-26T23:44:38.406Z,69.55
2023-03-26T23:47:05.011Z,64.38
2023-03-26T23:49:31.460Z,63.22
2023-03-26T23:51:57.907Z,53.03
2023-03-26T23:54:24.366Z,46.70
2023-03-26T23:56:50.870Z,39.78
2023-03-26T23:59:17.395Z,41.00
